Terminal Aerodrome Forecast
Issued by NWS Billings, MT

Home | Current Version | Previous Version | Graphics & Text | Print | Product List | Glossary On
Versions: 1 2 3 4 5 6 7 8 9 10 11 12 13
000
FTUS45 KBYZ 201725
TAFMLS
TAF
KMLS 201725Z 2018/2118 VRB04KT P6SM SCT090
     FM210100 02005KT P6SM FEW100
     FM210600 22006KT P6SM SKC=

USA.gov is the U.S. government's official web portal to all federal, state and local government web resources and services.